Lucas, Kansas
Current Conditions -  °F | °C
As of 8:42 AM on Friday 31 Oct 2014 (Local Time) from KRSL Reporting Station
Scattered Clouds Scattered Clouds  
Wind Chill: 21°   Ceiling: Unl
Heat Index: 32°   Visibility: 10mi
Dew Point: 24°   Wind: 17mph
Humidity: 73%   Direction: 30°NNE
Pressure: 30.52"   Gusts: NA
Location:  39.06°N, 98.54°W
Report Text: KRSL 311342Z AUTO 03015KT 10SM SCT016 00/M04 A3052 RMK AO2 PK WND 02028/1320 T00001044
Loading
Personal Weather Stations






























Interactive Weather Map
Tropical Storm Tracking
New forecast layout! Learn more

10-Day Weather Forecast

Advertisements
Track Severe Weather on mobile